Time;durP1;ratioP1;P1;durP2;ratioP2;P2;SDS_P1;SDS_P2;PMS_P1;PMS_P2;Temp;Humidity;BMP_temperature;BMP_pressure;BME280_temperature;BME280_humidity;BME280_pressure;Samples;Min_cycle;Max_cycle;Signal;HPM_P1;HPM_P2
2024/02/25 00:04:13;;;;;;;;;;;;;;;20.42;41.53;94704.97;10503985;28;1875;-65
2024/02/25 00:09:13;;;;;;;;;;;;;;;20.41;41.74;94718.41;10502023;28;2398;-64
2024/02/25 00:14:13;;;;;;;;;;;;;;;20.39;41.75;94734.50;10479481;28;2206;-65
2024/02/25 00:19:13;;;;;;;;;;;;;;;20.37;41.69;94718.22;10500394;28;1963;-65
2024/02/25 00:24:17;;;;;;;;;;;;;;;20.35;41.92;94719.59;10508227;28;1995;-67
2024/02/25 00:29:17;;;;;;;;;;;;;;;20.35;41.78;94741.44;10504927;28;2520;-66
2024/02/25 00:34:17;;;;;;;;;;;;;;;20.31;41.76;94745.72;10485179;28;1948;-66
2024/02/25 00:39:18;;;;;;;;;;;;;;;20.30;41.45;94751.28;10510602;28;2007;-65
2024/02/25 00:44:19;;;;;;;;;;;;;;;20.26;41.26;94746.59;10509490;28;2068;-65
2024/02/25 00:49:19;;;;;;;;;;;;;;;20.26;41.30;94740.56;10513728;28;2038;-66
2024/02/25 00:54:20;;;;;;;;;;;;;;;20.23;41.31;94744.56;10504872;28;2089;-66
2024/02/25 00:59:20;;;;;;;;;;;;;;;20.21;41.27;94740.69;10505715;28;2051;-67
2024/02/25 01:04:23;;;;;;;;;;;;;;;20.20;41.27;94744.38;10508979;28;2093;-69
2024/02/25 01:09:23;;;;;;;;;;;;;;;20.17;41.31;94739.69;10509137;28;2298;-65
2024/02/25 01:14:24;;;;;;;;;;;;;;;20.16;41.02;94738.09;10500927;28;2274;-65
2024/02/25 01:19:24;;;;;;;;;;;;;;;20.13;41.36;94736.09;10500072;28;2006;-68
2024/02/25 01:24:24;;;;;;;;;;;;;;;20.14;40.99;94729.72;10512829;28;1995;-64
2024/02/25 01:29:25;;;;;;;;;;;;;;;20.11;41.11;94731.09;10503455;28;2239;-66
2024/02/25 01:34:27;;;;;;;;;;;;;;;20.09;41.56;94727.22;10515696;28;2200;-65
2024/02/25 01:39:28;;;;;;;;;;;;;;;20.08;41.38;94730.91;10506900;28;2026;-66
2024/02/25 01:44:28;;;;;;;;;;;;;;;20.06;41.30;94727.78;10505237;28;2011;-65
2024/02/25 01:49:28;;;;;;;;;;;;;;;20.05;41.51;94734.91;10505690;28;2017;-65
2024/02/25 01:54:29;;;;;;;;;;;;;;;20.03;41.53;94737.03;10513900;28;2271;-65
2024/02/25 01:59:29;;;;;;;;;;;;;;;20.02;41.21;94742.63;10508553;28;2000;-65
2024/02/25 02:04:32;;;;;;;;;;;;;;;20.00;41.34;94744.75;10516223;28;2196;-65
2024/02/25 02:09:35;;;;;;;;;;;;;;;19.99;41.23;94735.31;10495435;28;2044;-65
2024/02/25 02:14:35;;;;;;;;;;;;;;;19.98;41.26;94733.75;10501900;28;2161;-65
2024/02/25 02:19:35;;;;;;;;;;;;;;;19.96;41.25;94735.91;10503665;28;1999;-65
2024/02/25 02:24:36;;;;;;;;;;;;;;;19.95;41.48;94727.22;10506925;28;1988;-65
2024/02/25 02:29:36;;;;;;;;;;;;;;;19.93;41.25;94718.06;10500137;28;2103;-65
2024/02/25 02:34:36;;;;;;;;;;;;;;;19.92;41.25;94722.56;10509325;28;1995;-65
2024/02/25 02:39:37;;;;;;;;;;;;;;;19.91;41.35;94717.56;10495628;28;2320;-65
2024/02/25 02:44:38;;;;;;;;;;;;;;;19.89;41.33;94717.09;10499087;28;2022;-65
2024/02/25 02:49:38;;;;;;;;;;;;;;;19.88;41.34;94705.03;10504548;28;2050;-65
2024/02/25 02:54:38;;;;;;;;;;;;;;;19.85;41.37;94710.84;10495469;28;2249;-65
2024/02/25 02:59:38;;;;;;;;;;;;;;;19.85;41.43;94721.38;10501689;28;2021;-65
2024/02/25 03:04:39;;;;;;;;;;;;;;;19.84;41.19;94727.72;10497070;28;2055;-65
2024/02/25 03:09:39;;;;;;;;;;;;;;;19.82;41.19;94732.50;10492583;28;2156;-65
2024/02/25 03:14:40;;;;;;;;;;;;;;;19.82;41.54;94730.66;10492788;28;2384;-65
2024/02/25 03:19:40;;;;;;;;;;;;;;;19.80;41.37;94729.38;10491489;28;2046;-64
2024/02/25 03:24:40;;;;;;;;;;;;;;;19.79;41.22;94730.44;10496390;28;2041;-64
2024/02/25 03:29:41;;;;;;;;;;;;;;;19.77;41.13;94735.22;10499974;28;2041;-65
2024/02/25 03:34:41;;;;;;;;;;;;;;;19.76;41.22;94752.84;10484648;28;2024;-64
2024/02/25 03:39:41;;;;;;;;;;;;;;;19.75;41.07;94755.75;10501293;28;2132;-65
2024/02/25 03:44:42;;;;;;;;;;;;;;;19.73;41.14;94757.91;10501391;28;2241;-65
2024/02/25 03:49:44;;;;;;;;;;;;;;;19.72;41.02;94756.34;10506612;28;2123;-65
2024/02/25 03:54:46;;;;;;;;;;;;;;;19.70;40.98;94761.13;10498148;28;2198;-65
2024/02/25 03:59:46;;;;;;;;;;;;;;;19.69;40.79;94759.56;10505222;28;2078;-64
2024/02/25 04:04:46;;;;;;;;;;;;;;;19.67;40.84;94751.19;10504843;28;2475;-65
2024/02/25 04:09:46;;;;;;;;;;;;;;;19.67;40.95;94756.44;10502518;28;2009;-65
2024/02/25 04:14:47;;;;;;;;;;;;;;;19.65;40.84;94745.44;10509712;28;1982;-64
2024/02/25 04:19:47;;;;;;;;;;;;;;;19.64;40.73;94744.66;10511284;28;2227;-65
2024/02/25 04:24:47;;;;;;;;;;;;;;;19.64;40.94;94733.38;10504776;28;2014;-64
2024/02/25 04:29:48;;;;;;;;;;;;;;;19.62;40.82;94738.16;10511598;28;1935;-65
2024/02/25 04:34:48;;;;;;;;;;;;;;;19.61;40.59;94747.88;10509058;28;5395;-65
2024/02/25 04:39:48;;;;;;;;;;;;;;;19.60;40.67;94750.81;10509225;28;2090;-64
2024/02/25 04:44:48;;;;;;;;;;;;;;;19.58;40.85;94748.44;10501372;28;2080;-65
2024/02/25 04:49:49;;;;;;;;;;;;;;;19.58;40.60;94753.69;10508388;28;2093;-64
2024/02/25 04:54:49;;;;;;;;;;;;;;;19.56;40.65;94744.56;10505948;28;1969;-65
2024/02/25 04:59:49;;;;;;;;;;;;;;;19.55;40.65;94735.91;10503877;28;1999;-65
2024/02/25 05:04:50;;;;;;;;;;;;;;;19.55;40.68;94740.38;10510239;28;2121;-65
2024/02/25 05:09:50;;;;;;;;;;;;;;;19.54;41.12;94742.22;10504124;28;1922;-65
2024/02/25 05:14:51;;;;;;;;;;;;;;;19.59;40.90;94746.59;10510256;28;2061;-64
2024/02/25 05:19:51;;;;;;;;;;;;;;;19.64;40.72;94739.38;10502899;28;2354;-65
2024/02/25 05:24:51;;;;;;;;;;;;;;;19.70;40.20;94732.97;10502815;28;1950;-65
2024/02/25 05:29:52;;;;;;;;;;;;;;;19.76;40.02;94731.03;10508537;28;2903;-65
2024/02/25 05:34:53;;;;;;;;;;;;;;;19.78;40.18;94726.25;10506401;28;2110;-65
2024/02/25 05:39:53;;;;;;;;;;;;;;;19.81;40.56;94720.41;10512673;28;2042;-65
2024/02/25 05:44:54;;;;;;;;;;;;;;;19.87;40.02;94719.22;10503994;28;1864;-65
2024/02/25 05:49:55;;;;;;;;;;;;;;;19.92;40.04;94719.94;10503896;28;2018;-65
2024/02/25 05:54:56;;;;;;;;;;;;;;;19.96;40.00;94712.22;10502269;28;2104;-65
2024/02/25 05:59:57;;;;;;;;;;;;;;;19.98;40.00;94707.44;10503978;28;2016;-65
2024/02/25 06:04:58;;;;;;;;;;;;;;;20.02;40.14;94705.78;10503527;28;2030;-65
2024/02/25 06:09:58;;;;;;;;;;;;;;;20.06;40.16;94701.50;10508627;28;2036;-65
2024/02/25 06:14:58;;;;;;;;;;;;;;;20.08;39.90;94694.09;10510043;28;1982;-65
2024/02/25 06:19:58;;;;;;;;;;;;;;;20.10;39.56;94697.19;10498365;28;2035;-64
2024/02/25 06:24:59;;;;;;;;;;;;;;;20.13;39.81;94699.25;10503638;28;2049;-65
2024/02/25 06:29:59;;;;;;;;;;;;;;;20.13;39.77;94697.38;10501954;28;2721;-64
2024/02/25 06:34:59;;;;;;;;;;;;;;;20.17;39.70;94697.59;10510348;28;1986;-63
2024/02/25 06:39:59;;;;;;;;;;;;;;;20.18;39.53;94691.22;10509050;28;2340;-65
2024/02/25 06:45:02;;;;;;;;;;;;;;;20.20;39.22;94691.75;10502983;28;1947;-65
2024/02/25 06:50:03;;;;;;;;;;;;;;;20.21;39.18;94694.09;10506004;28;2033;-64
2024/02/25 06:55:03;;;;;;;;;;;;;;;20.21;39.26;94691.47;10508971;28;1966;-64
2024/02/25 07:00:05;;;;;;;;;;;;;;;20.22;39.53;94694.84;10505114;28;2341;-64
2024/02/25 07:05:06;;;;;;;;;;;;;;;20.23;38.70;94694.59;10499363;28;2025;-65
2024/02/25 07:10:06;;;;;;;;;;;;;;;20.23;38.86;94691.94;10505591;28;2247;-64
2024/02/25 07:15:07;;;;;;;;;;;;;;;20.25;39.01;94694.28;10502286;28;2057;-64
2024/02/25 07:20:07;;;;;;;;;;;;;;;20.26;38.81;94691.34;10503528;28;1971;-65
2024/02/25 07:25:08;;;;;;;;;;;;;;;20.24;38.61;94688.22;10496651;28;2069;-64
2024/02/25 07:30:08;;;;;;;;;;;;;;;20.26;38.79;94687.94;10498130;28;1940;-64
2024/02/25 07:35:08;;;;;;;;;;;;;;;20.27;38.32;94684.22;10497581;28;1997;-64
2024/02/25 07:40:09;;;;;;;;;;;;;;;20.26;38.41;94683.44;10502883;28;1981;-64
2024/02/25 07:45:09;;;;;;;;;;;;;;;20.27;38.77;94677.13;10496675;28;1940;-64
2024/02/25 07:50:10;;;;;;;;;;;;;;;20.27;39.05;94677.13;10498808;28;2128;-65
2024/02/25 07:55:11;;;;;;;;;;;;;;;20.30;38.87;94681.00;10504925;28;2739;-64
2024/02/25 08:00:11;;;;;;;;;;;;;;;20.32;38.83;94678.09;10498645;28;2123;-66
2024/02/25 08:05:12;;;;;;;;;;;;;;;20.34;38.79;94675.94;10503316;28;1844;-65
2024/02/25 08:10:12;;;;;;;;;;;;;;;20.35;38.74;94678.25;10498708;28;1984;-65
2024/02/25 08:15:12;;;;;;;;;;;;;;;20.38;38.68;94688.19;10502088;28;2066;-64
2024/02/25 08:20:15;;;;;;;;;;;;;;;20.38;38.44;94682.91;10499486;28;2065;-66
2024/02/25 08:25:15;;;;;;;;;;;;;;;20.40;38.94;94686.06;10501361;28;2041;-65
2024/02/25 08:30:16;;;;;;;;;;;;;;;20.41;39.13;94669.19;10506142;28;1915;-66
2024/02/25 08:35:16;;;;;;;;;;;;;;;20.42;38.77;94664.69;10496795;28;2052;-65
2024/02/25 08:40:20;;;;;;;;;;;;;;;20.43;39.13;94660.97;10502868;28;2015;-65
2024/02/25 08:45:22;;;;;;;;;;;;;;;20.44;38.68;94667.81;10502222;28;2070;-65
2024/02/25 08:50:23;;;;;;;;;;;;;;;20.46;38.93;94663.81;10504321;28;2415;-65
2024/02/25 08:55:23;;;;;;;;;;;;;;;20.47;39.06;94662.72;10494978;28;1955;-65
2024/02/25 09:00:23;;;;;;;;;;;;;;;20.51;38.32;94668.94;10504122;28;2013;-65
2024/02/25 09:05:24;;;;;;;;;;;;;;;20.59;39.17;94659.53;10501910;28;1971;-70
2024/02/25 09:10:24;;;;;;;;;;;;;;;20.61;38.77;94652.16;10501636;28;2043;-69
2024/02/25 09:15:26;;;;;;;;;;;;;;;20.64;39.74;94648.91;10516910;28;2029;-70
2024/02/25 09:20:29;;;;;;;;;;;;;;;20.71;40.25;94649.28;10517525;28;2120;-70
2024/02/25 09:25:33;;;;;;;;;;;;;;;20.22;34.49;94639.59;10509670;28;2025;-75
2024/02/25 09:30:33;;;;;;;;;;;;;;;19.31;32.43;94630.13;10509114;28;1932;-68
2024/02/25 09:35:34;;;;;;;;;;;;;;;18.47;30.75;94626.88;10514521;28;2114;-69
2024/02/25 09:40:34;;;;;;;;;;;;;;;17.87;31.70;94619.88;10510217;28;2467;-69
2024/02/25 09:45:34;;;;;;;;;;;;;;;18.20;33.18;94618.06;10508376;28;1987;-75
2024/02/25 09:50:36;;;;;;;;;;;;;;;18.47;35.76;94612.97;10508529;28;1982;-73
2024/02/25 09:55:36;;;;;;;;;;;;;;;18.84;36.67;94591.88;10511415;28;2071;-75
2024/02/25 10:00:36;;;;;;;;;;;;;;;19.14;37.07;94587.91;10496541;28;2089;-70
2024/02/25 10:05:37;;;;;;;;;;;;;;;19.38;37.48;94578.78;10503671;28;2116;-68
2024/02/25 10:10:38;;;;;;;;;;;;;;;19.60;37.84;94582.56;10505517;28;2170;-77
2024/02/25 10:15:39;;;;;;;;;;;;;;;19.79;37.93;94580.56;10507239;28;1886;-75
2024/02/25 10:20:40;;;;;;;;;;;;;;;19.94;38.19;94578.38;10504034;28;2100;-75
2024/02/25 10:25:42;;;;;;;;;;;;;;;20.07;38.28;94572.28;10501094;28;2113;-77
2024/02/25 10:30:59;;;;;;;;;;;;;;;20.17;38.47;94577.31;10508567;28;2127;-80
2024/02/25 10:36:07;;;;;;;;;;;;;;;20.23;38.72;94567.50;10505078;28;2519;-76
2024/02/25 10:41:10;;;;;;;;;;;;;;;20.31;39.19;94569.41;10506878;28;1892;-73
2024/02/25 10:46:16;;;;;;;;;;;;;;;20.34;39.76;94554.88;10516388;28;2044;-75
2024/02/25 10:51:18;;;;;;;;;;;;;;;20.38;40.03;94566.34;10511795;28;2129;-75
2024/02/25 10:56:18;;;;;;;;;;;;;;;20.42;40.17;94554.16;10499185;28;1982;-67
2024/02/25 11:01:19;;;;;;;;;;;;;;;20.47;40.33;94557.41;10502306;28;2065;-69
2024/02/25 11:06:31;;;;;;;;;;;;;;;20.52;41.01;94552.03;10514296;28;1573;-71
2024/02/25 11:11:31;;;;;;;;;;;;;;;20.57;41.07;94545.84;10512948;28;3210;-72
2024/02/25 11:16:35;;;;;;;;;;;;;;;20.63;41.88;94534.16;10510059;28;1733;-70
2024/02/25 11:21:38;;;;;;;;;;;;;;;20.69;41.86;94525.78;10500951;28;1493;-70
2024/02/25 11:26:39;;;;;;;;;;;;;;;20.74;41.58;94509.88;10514583;28;1561;-65
2024/02/25 11:31:46;;;;;;;;;;;;;;;20.78;41.67;94504.75;10507770;28;1906;-67
2024/02/25 11:36:51;;;;;;;;;;;;;;;20.81;42.03;94491.75;10508969;28;1821;-67
2024/02/25 11:41:51;;;;;;;;;;;;;;;20.84;41.83;94493.78;10508916;28;1512;-67
2024/02/25 11:46:56;;;;;;;;;;;;;;;20.86;42.32;94489.00;10500431;28;1901;-67
2024/02/25 11:51:56;;;;;;;;;;;;;;;20.88;42.01;94486.81;10495412;28;1914;-65
2024/02/25 11:56:57;;;;;;;;;;;;;;;20.90;42.39;94474.13;10501117;28;2826;-67
2024/02/25 12:01:57;;;;;;;;;;;;;;;20.94;42.45;94476.91;10501891;28;1450;-66
2024/02/25 12:06:58;;;;;;;;;;;;;;;20.95;43.04;94455.56;10510040;28;1549;-67
2024/02/25 12:11:58;;;;;;;;;;;;;;;20.98;43.19;94454.94;10506570;28;2201;-67
2024/02/25 12:16:58;;;;;;;;;;;;;;;21.02;42.64;94442.72;10506211;28;1717;-67
2024/02/25 12:22:01;;;;;;;;;;;;;;;21.04;41.78;94443.19;10510345;28;1879;-68
2024/02/25 12:27:01;;;;;;;;;;;;;;;21.12;41.69;94446.16;10504960;28;1442;-68
2024/02/25 12:32:01;;;;;;;;;;;;;;;21.19;43.92;94435.94;10515791;28;1935;-70
2024/02/25 12:37:02;;;;;;;;;;;;;;;21.25;43.97;94426.78;10522447;28;1520;-68
2024/02/25 12:42:05;;;;;;;;;;;;;;;21.32;43.86;94421.84;10519236;28;1900;-69
2024/02/25 12:47:05;;;;;;;;;;;;;;;21.35;43.97;94421.25;10512051;28;2535;-67
2024/02/25 12:52:05;;;;;;;;;;;;;;;21.32;44.33;94406.03;10515268;28;1995;-68
2024/02/25 12:57:06;;;;;;;;;;;;;;;21.34;44.27;94409.13;10516416;28;1525;-68
2024/02/25 13:02:08;;;;;;;;;;;;;;;21.34;44.57;94402.00;10510883;28;1808;-71
2024/02/25 13:07:09;;;;;;;;;;;;;;;21.32;43.83;94400.75;10519762;28;2067;-68
2024/02/25 13:12:09;;;;;;;;;;;;;;;21.30;43.52;94395.81;10515485;28;1918;-68
2024/02/25 13:17:12;;;;;;;;;;;;;;;21.29;43.63;94396.13;10515623;28;1761;-67
2024/02/25 13:22:13;;;;;;;;;;;;;;;21.29;43.74;94391.59;10520107;28;1726;-68
2024/02/25 13:27:13;;;;;;;;;;;;;;;21.28;43.65;94382.16;10505888;28;1532;-69
2024/02/25 13:32:13;;;;;;;;;;;;;;;21.31;43.38;94383.41;10514081;28;1968;-68
2024/02/25 13:37:14;;;;;;;;;;;;;;;21.32;43.13;94382.31;10514549;28;2536;-68
2024/02/25 13:42:14;;;;;;;;;;;;;;;21.34;43.03;94366.97;10515023;28;1514;-68
2024/02/25 13:47:14;;;;;;;;;;;;;;;21.37;43.11;94366.34;10512872;28;1764;-68
2024/02/25 13:52:15;;;;;;;;;;;;;;;21.44;43.37;94356.09;10509152;28;1941;-67
2024/02/25 13:57:17;;;;;;;;;;;;;;;21.53;43.20;94351.59;10510114;28;1990;-67
2024/02/25 14:02:20;;;;;;;;;;;;;;;21.58;42.97;94341.66;10507149;28;2132;-68
2024/02/25 14:07:20;;;;;;;;;;;;;;;21.58;43.00;94340.88;10503188;28;2045;-67
2024/02/25 14:12:20;;;;;;;;;;;;;;;21.54;43.25;94334.66;10522338;28;1985;-68
2024/02/25 14:17:21;;;;;;;;;;;;;;;21.52;43.52;94336.84;10504713;28;1970;-67
2024/02/25 14:22:22;;;;;;;;;;;;;;;21.52;43.22;94331.56;10506831;28;2675;-67
2024/02/25 14:27:22;;;;;;;;;;;;;;;21.52;42.96;94326.31;10505174;28;2041;-67
2024/02/25 14:32:23;;;;;;;;;;;;;;;21.48;42.97;94325.38;10506744;28;1975;-68
2024/02/25 14:37:23;;;;;;;;;;;;;;;21.38;43.25;94323.84;10503372;28;2103;-68
2024/02/25 14:42:23;;;;;;;;;;;;;;;21.32;43.20;94319.06;10510871;28;1990;-68
2024/02/25 14:47:24;;;;;;;;;;;;;;;21.26;43.61;94318.44;10514516;28;2043;-66
2024/02/25 14:52:25;;;;;;;;;;;;;;;21.24;43.50;94309.28;10502676;28;1980;-68
2024/02/25 14:57:25;;;;;;;;;;;;;;;21.19;43.63;94306.81;10515655;28;2008;-69
2024/02/25 15:02:26;;;;;;;;;;;;;;;21.16;43.39;94304.81;10521861;28;2559;-69
2024/02/25 15:07:26;;;;;;;;;;;;;;;21.14;43.25;94305.13;10508513;28;1897;-69
2024/02/25 15:12:26;;;;;;;;;;;;;;;21.13;43.18;94300.16;10514421;28;1905;-68
2024/02/25 15:17:26;;;;;;;;;;;;;;;21.10;43.03;94293.66;10514122;28;1877;-69
2024/02/25 15:22:27;;;;;;;;;;;;;;;21.10;43.38;94291.03;10515070;28;1365;-68
2024/02/25 15:27:27;;;;;;;;;;;;;;;21.12;43.31;94291.50;10511816;28;1576;-69
2024/02/25 15:32:28;;;;;;;;;;;;;;;21.12;43.14;94288.84;10514812;28;1969;-68
2024/02/25 15:37:30;;;;;;;;;;;;;;;21.15;42.88;94284.81;10505260;28;1657;-68
2024/02/25 15:42:31;;;;;;;;;;;;;;;21.14;43.08;94284.03;10511586;28;2575;-68
2024/02/25 15:47:31;;;;;;;;;;;;;;;21.16;42.76;94273.19;10508673;28;1733;-67
2024/02/25 15:52:33;;;;;;;;;;;;;;;21.18;42.80;94271.00;10507205;28;1971;-67
2024/02/25 15:57:33;;;;;;;;;;;;;;;21.19;43.09;94269.91;10502747;28;2117;-67
2024/02/25 16:02:33;;;;;;;;;;;;;;;21.20;43.12;94260.94;10501167;28;2195;-68
2024/02/25 16:07:34;;;;;;;;;;;;;;;21.21;42.98;94259.84;10503894;28;2135;-67
2024/02/25 16:12:34;;;;;;;;;;;;;;;21.23;42.55;94255.03;10507633;28;2065;-68
2024/02/25 16:17:38;;;;;;;;;;;;;;;21.23;41.25;94249.75;10512310;28;2116;-69
2024/02/25 16:22:39;;;;;;;;;;;;;;;21.23;41.41;94244.47;10516492;28;2088;-69
2024/02/25 16:27:39;;;;;;;;;;;;;;;21.24;40.70;94246.03;10504668;28;2432;-69
2024/02/25 16:32:40;;;;;;;;;;;;;;;21.22;41.99;94242.94;10506372;28;2053;-68
2024/02/25 16:37:40;;;;;;;;;;;;;;;21.25;40.93;94242.31;10509144;28;1960;-68
2024/02/25 16:42:41;;;;;;;;;;;;;;;21.26;41.40;94241.25;10509177;28;1959;-70
2024/02/25 16:47:41;;;;;;;;;;;;;;;21.25;41.63;94244.94;10523041;28;1760;-69
2024/02/25 16:52:41;;;;;;;;;;;;;;;21.27;40.96;94250.69;10524564;28;1977;-69
2024/02/25 16:57:42;;;;;;;;;;;;;;;21.35;41.05;94249.91;10520226;28;1449;-68
2024/02/25 17:02:42;;;;;;;;;;;;;;;21.38;40.62;94255.31;10513667;28;1661;-68
2024/02/25 17:07:42;;;;;;;;;;;;;;;21.45;40.89;94257.47;10523150;28;1477;-69
2024/02/25 17:12:42;;;;;;;;;;;;;;;21.47;40.83;94257.94;10517324;28;2317;-68
2024/02/25 17:17:43;;;;;;;;;;;;;;;21.52;40.82;94261.16;10518782;28;1526;-69
2024/02/25 17:22:46;;;;;;;;;;;;;;;21.55;40.67;94263.19;10514796;28;1764;-69
2024/02/25 17:27:46;;;;;;;;;;;;;;;21.57;40.83;94252.31;10517268;28;1437;-70
2024/02/25 17:32:46;;;;;;;;;;;;;;;21.59;40.43;94252.78;10510450;28;1902;-69
2024/02/25 17:37:47;;;;;;;;;;;;;;;21.58;40.39;94252.00;10505964;28;1904;-68
2024/02/25 17:42:47;;;;;;;;;;;;;;;21.61;40.34;94253.25;10525435;28;1946;-68
2024/02/25 17:47:47;;;;;;;;;;;;;;;21.62;40.55;94250.28;10524071;28;1749;-68
2024/02/25 17:52:52;;;;;;;;;;;;;;;21.64;40.29;94249.94;10509826;28;1906;-68
2024/02/25 17:57:53;;;;;;;;;;;;;;;21.64;40.33;94256.00;10528055;28;2523;-60
2024/02/25 18:02:54;;;;;;;;;;;;;;;21.74;40.06;94244.34;10517101;28;1515;-69
2024/02/25 18:07:55;;;;;;;;;;;;;;;21.73;39.87;94240.94;10515673;28;1452;-71
2024/02/25 18:12:56;;;;;;;;;;;;;;;21.71;40.85;94240.47;10515686;28;1949;-72
2024/02/25 18:17:56;;;;;;;;;;;;;;;21.81;39.88;94234.06;10538395;28;1711;-73
2024/02/25 18:22:59;;;;;;;;;;;;;;;21.77;39.91;94225.25;10532574;28;1861;-71
2024/02/25 18:27:59;;;;;;;;;;;;;;;21.78;40.02;94221.53;10528034;28;1531;-68
2024/02/25 18:33:00;;;;;;;;;;;;;;;21.78;40.32;94217.00;10531962;28;2371;-71
2024/02/25 18:38:02;;;;;;;;;;;;;;;21.76;39.75;94213.91;10526929;28;1847;-71
2024/02/25 18:43:02;;;;;;;;;;;;;;;21.73;40.09;94206.66;10534094;28;1531;-73
2024/02/25 18:48:04;;;;;;;;;;;;;;;21.74;39.61;94192.38;10512802;28;1869;-73
2024/02/25 18:53:04;;;;;;;;;;;;;;;21.69;39.98;94189.91;10509553;28;2031;-71
2024/02/25 18:58:04;;;;;;;;;;;;;;;21.76;39.47;94189.44;10515491;28;1536;-70
2024/02/25 19:03:05;;;;;;;;;;;;;;;21.70;39.16;94177.50;10514622;28;1670;-70
2024/02/25 19:08:05;;;;;;;;;;;;;;;21.69;38.89;94174.09;10510190;28;1489;-69
2024/02/25 19:13:05;;;;;;;;;;;;;;;21.74;39.28;94165.25;10497348;28;2145;-71
2024/02/25 19:18:06;;;;;;;;;;;;;;;21.74;39.62;94163.34;10502157;28;2443;-73
2024/02/25 19:23:06;;;;;;;;;;;;;;;21.75;39.06;94156.22;10500999;28;2132;-73
2024/02/25 19:28:06;;;;;;;;;;;;;;;21.77;38.77;94148.75;10512125;28;1882;-71
2024/02/25 19:33:09;;;;;;;;;;;;;;;21.68;38.82;94142.75;10502048;28;2002;-67
2024/02/25 19:38:10;;;;;;;;;;;;;;;21.70;38.66;94138.72;10507797;28;2339;-69
2024/02/25 19:43:10;;;;;;;;;;;;;;;21.69;38.63;94147.72;10510809;28;2269;-71
2024/02/25 19:48:11;;;;;;;;;;;;;;;21.67;38.39;94134.09;10511700;28;2379;-70
2024/02/25 19:53:11;;;;;;;;;;;;;;;21.64;38.60;94128.66;10522615;28;1977;-70
2024/02/25 19:58:12;;;;;;;;;;;;;;;21.66;38.76;94127.25;10515681;28;2563;-67
2024/02/25 20:03:12;;;;;;;;;;;;;;;21.64;39.01;94118.09;10506846;28;2054;-70
2024/02/25 20:08:13;;;;;;;;;;;;;;;21.67;38.68;94113.00;10505506;28;2118;-72
2024/02/25 20:13:13;;;;;;;;;;;;;;;21.61;38.71;94102.94;10507743;28;2029;-71
2024/02/25 20:18:13;;;;;;;;;;;;;;;21.60;38.83;94099.53;10508694;28;1939;-72
2024/02/25 20:23:13;;;;;;;;;;;;;;;21.61;39.17;94087.13;10514233;28;2034;-73
2024/02/25 20:28:16;;;;;;;;;;;;;;;21.60;39.31;94082.91;10508069;28;1894;-72
2024/02/25 20:33:16;;;;;;;;;;;;;;;21.59;38.97;94076.91;10500861;28;2057;-72
2024/02/25 20:38:17;;;;;;;;;;;;;;;21.60;38.64;94064.47;10502552;28;2073;-67
2024/02/25 20:43:17;;;;;;;;;;;;;;;21.64;38.81;94068.00;10503373;28;1922;-73
2024/02/25 20:48:17;;;;;;;;;;;;;;;21.54;38.53;94063.88;10500705;28;2046;-73
2024/02/25 20:53:18;;;;;;;;;;;;;;;21.53;37.75;94054.44;10506510;28;2802;-73
2024/02/25 20:58:19;;;;;;;;;;;;;;;21.43;38.12;94054.03;10518806;28;1816;-73
2024/02/25 21:03:19;;;;;;;;;;;;;;;21.36;38.94;94044.00;10509669;28;2001;-73
2024/02/25 21:08:19;;;;;;;;;;;;;;;21.33;37.73;94041.22;10512894;28;2083;-72
2024/02/25 21:13:20;;;;;;;;;;;;;;;21.25;38.19;94026.22;10506216;28;2205;-72
2024/02/25 21:18:21;;;;;;;;;;;;;;;21.20;38.53;94021.94;10512636;28;2037;-73
2024/02/25 21:23:21;;;;;;;;;;;;;;;21.13;38.37;94018.22;10512762;28;1978;-73
2024/02/25 21:28:22;;;;;;;;;;;;;;;21.05;38.58;94010.06;10526415;28;2052;-73
2024/02/25 21:33:22;;;;;;;;;;;;;;;21.01;39.18;94009.13;10513713;28;1982;-74
2024/02/25 21:38:22;;;;;;;;;;;;;;;21.01;38.13;94003.84;10522299;28;2855;-73
2024/02/25 21:43:23;;;;;;;;;;;;;;;20.90;38.59;93994.75;10527030;28;2025;-73
2024/02/25 21:48:23;;;;;;;;;;;;;;;20.84;39.48;93987.34;10511046;28;1935;-73
2024/02/25 21:53:25;;;;;;;;;;;;;;;20.78;40.55;93980.72;10510052;28;1929;-73
2024/02/25 21:58:25;;;;;;;;;;;;;;;20.76;40.85;93977.63;10502945;28;1868;-73
2024/02/25 22:03:25;;;;;;;;;;;;;;;20.72;41.39;93972.22;10517048;28;1978;-73
2024/02/25 22:08:26;;;;;;;;;;;;;;;20.69;41.25;93978.13;10510909;28;1924;-73
2024/02/25 22:13:26;;;;;;;;;;;;;;;20.66;41.49;93986.66;10512044;28;1987;-72
2024/02/25 22:18:26;;;;;;;;;;;;;;;20.62;41.55;93982.34;10506250;28;2173;-72
2024/02/25 22:23:27;;;;;;;;;;;;;;;20.60;41.50;93987.16;10512289;28;2661;-73
2024/02/25 22:28:27;;;;;;;;;;;;;;;20.56;41.63;93976.47;10509866;28;1970;-73
2024/02/25 22:33:27;;;;;;;;;;;;;;;20.54;41.62;93970.75;10514240;28;1976;-73
2024/02/25 22:38:27;;;;;;;;;;;;;;;20.52;41.86;93966.88;10509666;28;2108;-73
2024/02/25 22:43:28;;;;;;;;;;;;;;;20.48;41.86;93964.13;10512561;28;2133;-71
2024/02/25 22:48:28;;;;;;;;;;;;;;;20.46;41.86;93953.13;10503475;28;2056;-72
2024/02/25 22:53:28;;;;;;;;;;;;;;;20.43;42.04;93947.72;10506340;28;2085;-73
2024/02/25 22:58:29;;;;;;;;;;;;;;;20.41;42.22;93955.16;10509256;28;2033;-72
2024/02/25 23:03:29;;;;;;;;;;;;;;;20.38;42.11;93953.91;10504606;28;2021;-73
2024/02/25 23:08:29;;;;;;;;;;;;;;;20.37;42.14;93962.91;10500741;28;2968;-72
2024/02/25 23:13:29;;;;;;;;;;;;;;;20.35;42.35;93967.72;10502909;28;1938;-72
2024/02/25 23:18:30;;;;;;;;;;;;;;;20.34;42.03;93965.41;10500145;28;2045;-72
2024/02/25 23:23:30;;;;;;;;;;;;;;;20.30;42.28;93959.97;10500501;28;1903;-72
2024/02/25 23:28:30;;;;;;;;;;;;;;;20.28;42.15;93946.38;10507155;28;2096;-72
2024/02/25 23:33:30;;;;;;;;;;;;;;;20.25;42.41;93944.38;10507276;28;2236;-72
2024/02/25 23:38:31;;;;;;;;;;;;;;;20.24;42.13;93934.94;10501949;28;2053;-73
2024/02/25 23:43:31;;;;;;;;;;;;;;;20.22;42.15;93940.50;10503276;28;1911;-73
2024/02/25 23:48:31;;;;;;;;;;;;;;;20.20;42.38;93931.38;10507220;28;2007;-72
2024/02/25 23:53:32;;;;;;;;;;;;;;;20.18;42.40;93925.63;10504268;28;2672;-73
2024/02/25 23:58:32;;;;;;;;;;;;;;;20.16;42.34;93933.06;10502813;28;2163;-71
